sensor_id;sensor_type;location;lat;lon;timestamp;P1;durP1;ratioP1;P2;durP2;ratioP2
53503;SDS011;39387;50.998;22.340;2023-01-24T00:01:54;40.67;;;12.60;;
53503;SDS011;39387;50.998;22.340;2023-01-24T00:04:22;36.10;;;10.40;;
53503;SDS011;39387;50.998;22.340;2023-01-24T00:06:51;30.92;;;9.95;;
53503;SDS011;39387;50.998;22.340;2023-01-24T00:09:18;28.02;;;9.75;;
53503;SDS011;39387;50.998;22.340;2023-01-24T00:11:45;28.95;;;9.25;;
53503;SDS011;39387;50.998;22.340;2023-01-24T00:14:12;29.95;;;8.98;;
53503;SDS011;39387;50.998;22.340;2023-01-24T00:16:40;29.15;;;8.52;;
53503;SDS011;39387;50.998;22.340;2023-01-24T00:19:08;31.30;;;9.40;;
53503;SDS011;39387;50.998;22.340;2023-01-24T00:21:35;30.02;;;8.82;;
53503;SDS011;39387;50.998;22.340;2023-01-24T00:24:04;26.30;;;9.23;;
53503;SDS011;39387;50.998;22.340;2023-01-24T00:26:32;28.85;;;8.40;;
53503;SDS011;39387;50.998;22.340;2023-01-24T00:28:59;30.35;;;8.25;;
53503;SDS011;39387;50.998;22.340;2023-01-24T00:31:27;26.60;;;7.97;;
53503;SDS011;39387;50.998;22.340;2023-01-24T00:33:54;22.23;;;7.68;;
53503;SDS011;39387;50.998;22.340;2023-01-24T00:36:22;34.35;;;9.50;;
53503;SDS011;39387;50.998;22.340;2023-01-24T00:38:49;27.58;;;8.23;;
53503;SDS011;39387;50.998;22.340;2023-01-24T00:41:18;39.28;;;10.48;;
53503;SDS011;39387;50.998;22.340;2023-01-24T00:43:46;38.92;;;10.20;;
53503;SDS011;39387;50.998;22.340;2023-01-24T00:46:13;29.13;;;7.95;;
53503;SDS011;39387;50.998;22.340;2023-01-24T00:48:40;34.63;;;8.13;;
53503;SDS011;39387;50.998;22.340;2023-01-24T00:51:08;36.90;;;9.30;;
53503;SDS011;39387;50.998;22.340;2023-01-24T00:53:35;34.08;;;9.07;;
53503;SDS011;39387;50.998;22.340;2023-01-24T00:56:03;26.50;;;8.63;;
53503;SDS011;39387;50.998;22.340;2023-01-24T00:58:32;33.08;;;9.30;;
53503;SDS011;39387;50.998;22.340;2023-01-24T01:01:00;27.23;;;8.85;;
53503;SDS011;39387;50.998;22.340;2023-01-24T01:03:29;34.65;;;9.70;;
53503;SDS011;39387;50.998;22.340;2023-01-24T01:05:57;33.20;;;9.45;;
53503;SDS011;39387;50.998;22.340;2023-01-24T01:08:25;36.60;;;10.20;;
53503;SDS011;39387;50.998;22.340;2023-01-24T01:10:52;29.45;;;9.35;;
53503;SDS011;39387;50.998;22.340;2023-01-24T01:13:20;37.65;;;9.43;;
53503;SDS011;39387;50.998;22.340;2023-01-24T01:15:49;36.03;;;10.02;;
53503;SDS011;39387;50.998;22.340;2023-01-24T01:18:16;28.25;;;9.07;;
53503;SDS011;39387;50.998;22.340;2023-01-24T01:20:48;36.20;;;10.55;;
53503;SDS011;39387;50.998;22.340;2023-01-24T01:23:16;26.30;;;8.07;;
53503;SDS011;39387;50.998;22.340;2023-01-24T01:25:44;25.33;;;7.55;;
53503;SDS011;39387;50.998;22.340;2023-01-24T01:28:11;28.80;;;9.10;;
53503;SDS011;39387;50.998;22.340;2023-01-24T01:30:38;31.70;;;8.60;;
53503;SDS011;39387;50.998;22.340;2023-01-24T01:33:07;31.65;;;8.05;;
53503;SDS011;39387;50.998;22.340;2023-01-24T01:35:35;26.23;;;7.53;;
53503;SDS011;39387;50.998;22.340;2023-01-24T01:38:02;30.48;;;8.30;;
53503;SDS011;39387;50.998;22.340;2023-01-24T01:40:29;30.65;;;8.75;;
53503;SDS011;39387;50.998;22.340;2023-01-24T01:42:56;31.20;;;7.97;;
53503;SDS011;39387;50.998;22.340;2023-01-24T01:48:15;24.45;;;7.53;;
53503;SDS011;39387;50.998;22.340;2023-01-24T01:50:47;39.22;;;8.98;;
53503;SDS011;39387;50.998;22.340;2023-01-24T01:53:18;27.08;;;8.98;;
53503;SDS011;39387;50.998;22.340;2023-01-24T01:55:48;35.03;;;8.20;;
53503;SDS011;39387;50.998;22.340;2023-01-24T01:58:18;27.80;;;8.57;;
53503;SDS011;39387;50.998;22.340;2023-01-24T02:00:46;22.95;;;7.15;;
53503;SDS011;39387;50.998;22.340;2023-01-24T02:03:18;19.60;;;6.35;;
53503;SDS011;39387;50.998;22.340;2023-01-24T02:06:08;25.65;;;7.30;;
53503;SDS011;39387;50.998;22.340;2023-01-24T02:08:42;22.48;;;6.53;;
53503;SDS011;39387;50.998;22.340;2023-01-24T02:11:11;23.70;;;7.28;;
53503;SDS011;39387;50.998;22.340;2023-01-24T02:13:57;25.95;;;6.80;;
53503;SDS011;39387;50.998;22.340;2023-01-24T02:16:39;18.17;;;6.68;;
53503;SDS011;39387;50.998;22.340;2023-01-24T02:19:08;18.75;;;6.18;;
53503;SDS011;39387;50.998;22.340;2023-01-24T02:21:42;15.85;;;5.85;;
53503;SDS011;39387;50.998;22.340;2023-01-24T02:24:11;19.88;;;6.72;;
53503;SDS011;39387;50.998;22.340;2023-01-24T02:26:46;16.17;;;5.50;;
53503;SDS011;39387;50.998;22.340;2023-01-24T02:29:14;19.52;;;6.15;;
53503;SDS011;39387;50.998;22.340;2023-01-24T02:31:51;20.75;;;5.80;;
53503;SDS011;39387;50.998;22.340;2023-01-24T02:34:20;21.90;;;5.53;;
53503;SDS011;39387;50.998;22.340;2023-01-24T02:36:48;18.17;;;6.03;;
53503;SDS011;39387;50.998;22.340;2023-01-24T02:39:18;17.83;;;6.53;;
53503;SDS011;39387;50.998;22.340;2023-01-24T02:41:52;14.30;;;6.10;;
53503;SDS011;39387;50.998;22.340;2023-01-24T02:44:22;19.10;;;5.60;;
53503;SDS011;39387;50.998;22.340;2023-01-24T02:46:52;19.35;;;5.80;;
53503;SDS011;39387;50.998;22.340;2023-01-24T02:49:19;21.10;;;6.30;;
53503;SDS011;39387;50.998;22.340;2023-01-24T02:51:47;12.88;;;5.45;;
53503;SDS011;39387;50.998;22.340;2023-01-24T02:54:31;18.63;;;5.50;;
53503;SDS011;39387;50.998;22.340;2023-01-24T02:57:00;21.73;;;5.82;;
53503;SDS011;39387;50.998;22.340;2023-01-24T02:59:45;17.02;;;5.43;;
53503;SDS011;39387;50.998;22.340;2023-01-24T03:02:13;22.65;;;6.13;;
53503;SDS011;39387;50.998;22.340;2023-01-24T03:04:40;18.75;;;5.93;;
53503;SDS011;39387;50.998;22.340;2023-01-24T03:07:08;16.58;;;5.72;;
53503;SDS011;39387;50.998;22.340;2023-01-24T03:09:35;14.50;;;4.60;;
53503;SDS011;39387;50.998;22.340;2023-01-24T03:12:06;16.92;;;5.18;;
53503;SDS011;39387;50.998;22.340;2023-01-24T03:14:51;20.08;;;6.53;;
53503;SDS011;39387;50.998;22.340;2023-01-24T03:17:36;18.33;;;5.57;;
53503;SDS011;39387;50.998;22.340;2023-01-24T03:20:20;20.48;;;6.82;;
53503;SDS011;39387;50.998;22.340;2023-01-24T03:23:05;22.63;;;5.90;;
53503;SDS011;39387;50.998;22.340;2023-01-24T03:25:52;25.70;;;6.10;;
53503;SDS011;39387;50.998;22.340;2023-01-24T03:28:39;19.80;;;6.30;;
53503;SDS011;39387;50.998;22.340;2023-01-24T03:31:24;19.08;;;5.60;;
53503;SDS011;39387;50.998;22.340;2023-01-24T03:34:09;13.48;;;5.20;;
53503;SDS011;39387;50.998;22.340;2023-01-24T03:36:54;17.17;;;4.85;;
53503;SDS011;39387;50.998;22.340;2023-01-24T03:39:21;19.33;;;5.72;;
53503;SDS011;39387;50.998;22.340;2023-01-24T03:42:06;16.67;;;4.82;;
53503;SDS011;39387;50.998;22.340;2023-01-24T03:44:35;18.25;;;6.10;;
53503;SDS011;39387;50.998;22.340;2023-01-24T03:47:03;16.08;;;5.07;;
53503;SDS011;39387;50.998;22.340;2023-01-24T03:49:31;15.90;;;5.07;;
53503;SDS011;39387;50.998;22.340;2023-01-24T03:52:16;20.15;;;5.22;;
53503;SDS011;39387;50.998;22.340;2023-01-24T03:54:56;12.73;;;5.10;;
53503;SDS011;39387;50.998;22.340;2023-01-24T03:57:24;19.17;;;6.07;;
53503;SDS011;39387;50.998;22.340;2023-01-24T03:59:53;21.45;;;6.72;;
53503;SDS011;39387;50.998;22.340;2023-01-24T04:02:20;19.60;;;5.75;;
53503;SDS011;39387;50.998;22.340;2023-01-24T04:04:48;22.67;;;5.93;;
53503;SDS011;39387;50.998;22.340;2023-01-24T04:07:33;18.10;;;5.75;;
53503;SDS011;39387;50.998;22.340;2023-01-24T04:10:00;22.15;;;5.88;;
53503;SDS011;39387;50.998;22.340;2023-01-24T04:12:27;18.98;;;5.28;;
53503;SDS011;39387;50.998;22.340;2023-01-24T04:14:57;16.30;;;5.45;;
53503;SDS011;39387;50.998;22.340;2023-01-24T04:17:24;14.93;;;5.00;;
53503;SDS011;39387;50.998;22.340;2023-01-24T04:19:52;17.58;;;5.30;;
53503;SDS011;39387;50.998;22.340;2023-01-24T04:22:19;15.52;;;5.05;;
53503;SDS011;39387;50.998;22.340;2023-01-24T04:24:46;13.88;;;4.75;;
53503;SDS011;39387;50.998;22.340;2023-01-24T04:27:13;16.48;;;5.65;;
53503;SDS011;39387;50.998;22.340;2023-01-24T04:29:41;11.25;;;4.25;;
53503;SDS011;39387;50.998;22.340;2023-01-24T04:32:10;12.48;;;4.45;;
53503;SDS011;39387;50.998;22.340;2023-01-24T04:34:38;10.95;;;3.95;;
53503;SDS011;39387;50.998;22.340;2023-01-24T04:37:05;10.98;;;4.07;;
53503;SDS011;39387;50.998;22.340;2023-01-24T04:39:33;14.57;;;3.90;;
53503;SDS011;39387;50.998;22.340;2023-01-24T04:42:00;12.75;;;4.10;;
53503;SDS011;39387;50.998;22.340;2023-01-24T04:44:28;8.82;;;3.45;;
53503;SDS011;39387;50.998;22.340;2023-01-24T04:46:55;13.10;;;4.40;;
53503;SDS011;39387;50.998;22.340;2023-01-24T04:49:24;8.82;;;3.95;;
53503;SDS011;39387;50.998;22.340;2023-01-24T04:51:52;12.30;;;4.25;;
53503;SDS011;39387;50.998;22.340;2023-01-24T04:54:19;13.85;;;4.30;;
53503;SDS011;39387;50.998;22.340;2023-01-24T04:56:47;12.77;;;3.90;;
53503;SDS011;39387;50.998;22.340;2023-01-24T04:59:14;13.30;;;3.97;;
53503;SDS011;39387;50.998;22.340;2023-01-24T05:01:42;11.88;;;3.83;;
53503;SDS011;39387;50.998;22.340;2023-01-24T05:04:09;11.50;;;3.72;;
53503;SDS011;39387;50.998;22.340;2023-01-24T05:06:38;10.50;;;3.58;;
53503;SDS011;39387;50.998;22.340;2023-01-24T05:09:06;12.90;;;3.85;;
53503;SDS011;39387;50.998;22.340;2023-01-24T05:11:33;11.98;;;3.85;;
53503;SDS011;39387;50.998;22.340;2023-01-24T05:14:02;10.65;;;3.70;;
53503;SDS011;39387;50.998;22.340;2023-01-24T05:16:29;8.73;;;3.65;;
53503;SDS011;39387;50.998;22.340;2023-01-24T05:18:57;10.55;;;3.72;;
53503;SDS011;39387;50.998;22.340;2023-01-24T05:21:24;9.25;;;3.50;;
53503;SDS011;39387;50.998;22.340;2023-01-24T05:23:53;10.82;;;3.75;;
53503;SDS011;39387;50.998;22.340;2023-01-24T05:26:21;7.68;;;3.13;;
53503;SDS011;39387;50.998;22.340;2023-01-24T05:28:49;8.07;;;2.90;;
53503;SDS011;39387;50.998;22.340;2023-01-24T05:31:17;10.82;;;3.33;;
53503;SDS011;39387;50.998;22.340;2023-01-24T05:33:45;8.38;;;3.38;;
53503;SDS011;39387;50.998;22.340;2023-01-24T05:36:13;8.65;;;3.72;;
53503;SDS011;39387;50.998;22.340;2023-01-24T05:38:42;7.70;;;3.53;;
53503;SDS011;39387;50.998;22.340;2023-01-24T05:41:12;7.50;;;2.90;;
53503;SDS011;39387;50.998;22.340;2023-01-24T05:43:42;8.63;;;4.05;;
53503;SDS011;39387;50.998;22.340;2023-01-24T05:46:11;8.95;;;3.30;;
53503;SDS011;39387;50.998;22.340;2023-01-24T05:48:41;8.77;;;3.58;;
53503;SDS011;39387;50.998;22.340;2023-01-24T05:51:09;9.98;;;3.72;;
53503;SDS011;39387;50.998;22.340;2023-01-24T05:53:39;10.73;;;3.07;;
53503;SDS011;39387;50.998;22.340;2023-01-24T05:56:09;11.25;;;3.55;;
53503;SDS011;39387;50.998;22.340;2023-01-24T05:58:40;7.70;;;3.47;;
53503;SDS011;39387;50.998;22.340;2023-01-24T06:01:08;9.30;;;3.30;;
53503;SDS011;39387;50.998;22.340;2023-01-24T06:03:37;7.07;;;3.25;;
53503;SDS011;39387;50.998;22.340;2023-01-24T06:06:06;8.45;;;3.42;;
53503;SDS011;39387;50.998;22.340;2023-01-24T06:08:34;7.93;;;3.55;;
53503;SDS011;39387;50.998;22.340;2023-01-24T06:11:03;7.30;;;3.17;;
53503;SDS011;39387;50.998;22.340;2023-01-24T06:13:32;7.53;;;3.43;;
53503;SDS011;39387;50.998;22.340;2023-01-24T06:16:01;10.23;;;3.28;;
53503;SDS011;39387;50.998;22.340;2023-01-24T06:18:30;5.35;;;3.13;;
53503;SDS011;39387;50.998;22.340;2023-01-24T06:20:57;10.82;;;3.75;;
53503;SDS011;39387;50.998;22.340;2023-01-24T06:23:31;12.57;;;3.83;;
53503;SDS011;39387;50.998;22.340;2023-01-24T06:25:59;8.20;;;3.28;;
53503;SDS011;39387;50.998;22.340;2023-01-24T06:28:27;9.35;;;3.55;;
53503;SDS011;39387;50.998;22.340;2023-01-24T06:30:59;8.25;;;3.05;;
53503;SDS011;39387;50.998;22.340;2023-01-24T06:33:36;6.88;;;3.00;;
53503;SDS011;39387;50.998;22.340;2023-01-24T06:36:11;7.85;;;3.38;;
53503;SDS011;39387;50.998;22.340;2023-01-24T06:38:45;7.20;;;3.17;;
53503;SDS011;39387;50.998;22.340;2023-01-24T06:41:14;8.50;;;2.83;;
53503;SDS011;39387;50.998;22.340;2023-01-24T06:43:43;9.13;;;3.70;;
53503;SDS011;39387;50.998;22.340;2023-01-24T06:46:13;8.35;;;2.92;;
53503;SDS011;39387;50.998;22.340;2023-01-24T06:48:41;8.32;;;3.15;;
53503;SDS011;39387;50.998;22.340;2023-01-24T06:51:10;7.00;;;3.20;;
53503;SDS011;39387;50.998;22.340;2023-01-24T06:53:39;7.70;;;3.22;;
53503;SDS011;39387;50.998;22.340;2023-01-24T06:56:07;8.65;;;3.08;;
53503;SDS011;39387;50.998;22.340;2023-01-24T06:58:35;8.10;;;2.95;;
53503;SDS011;39387;50.998;22.340;2023-01-24T07:01:02;8.05;;;3.05;;
53503;SDS011;39387;50.998;22.340;2023-01-24T07:03:32;9.52;;;3.25;;
53503;SDS011;39387;50.998;22.340;2023-01-24T07:05:59;6.55;;;2.83;;
53503;SDS011;39387;50.998;22.340;2023-01-24T07:08:27;4.75;;;2.40;;
53503;SDS011;39387;50.998;22.340;2023-01-24T07:10:56;6.90;;;2.75;;
53503;SDS011;39387;50.998;22.340;2023-01-24T07:13:24;8.30;;;2.85;;
53503;SDS011;39387;50.998;22.340;2023-01-24T07:15:52;7.50;;;3.05;;
53503;SDS011;39387;50.998;22.340;2023-01-24T07:18:19;8.18;;;3.78;;
53503;SDS011;39387;50.998;22.340;2023-01-24T07:20:49;8.75;;;3.55;;
53503;SDS011;39387;50.998;22.340;2023-01-24T07:23:19;6.22;;;2.88;;
53503;SDS011;39387;50.998;22.340;2023-01-24T07:25:49;8.23;;;2.90;;
53503;SDS011;39387;50.998;22.340;2023-01-24T07:28:17;6.70;;;3.17;;
53503;SDS011;39387;50.998;22.340;2023-01-24T07:30:46;6.57;;;2.80;;
53503;SDS011;39387;50.998;22.340;2023-01-24T07:33:14;4.60;;;2.15;;
53503;SDS011;39387;50.998;22.340;2023-01-24T07:35:42;8.85;;;2.92;;
53503;SDS011;39387;50.998;22.340;2023-01-24T07:38:11;5.28;;;2.42;;
53503;SDS011;39387;50.998;22.340;2023-01-24T07:40:39;5.13;;;2.78;;
53503;SDS011;39387;50.998;22.340;2023-01-24T07:43:07;8.32;;;2.92;;
53503;SDS011;39387;50.998;22.340;2023-01-24T07:45:35;6.18;;;2.45;;
53503;SDS011;39387;50.998;22.340;2023-01-24T07:48:04;6.32;;;2.95;;
53503;SDS011;39387;50.998;22.340;2023-01-24T07:50:33;4.53;;;2.67;;
53503;SDS011;39387;50.998;22.340;2023-01-24T07:53:01;7.93;;;2.70;;
53503;SDS011;39387;50.998;22.340;2023-01-24T07:55:30;8.00;;;2.67;;
53503;SDS011;39387;50.998;22.340;2023-01-24T07:57:58;6.88;;;2.92;;
53503;SDS011;39387;50.998;22.340;2023-01-24T08:00:27;6.13;;;2.92;;
53503;SDS011;39387;50.998;22.340;2023-01-24T08:02:55;6.60;;;3.40;;
53503;SDS011;39387;50.998;22.340;2023-01-24T08:05:22;7.47;;;2.92;;
53503;SDS011;39387;50.998;22.340;2023-01-24T08:07:50;6.25;;;3.28;;
53503;SDS011;39387;50.998;22.340;2023-01-24T08:10:17;7.47;;;3.40;;
53503;SDS011;39387;50.998;22.340;2023-01-24T08:12:49;8.82;;;3.40;;
53503;SDS011;39387;50.998;22.340;2023-01-24T08:15:16;11.32;;;4.97;;
53503;SDS011;39387;50.998;22.340;2023-01-24T08:17:44;9.88;;;4.43;;
53503;SDS011;39387;50.998;22.340;2023-01-24T08:20:12;8.05;;;3.95;;
53503;SDS011;39387;50.998;22.340;2023-01-24T08:22:39;9.45;;;3.60;;
53503;SDS011;39387;50.998;22.340;2023-01-24T08:25:07;7.72;;;3.60;;
53503;SDS011;39387;50.998;22.340;2023-01-24T08:27:35;8.07;;;3.60;;
53503;SDS011;39387;50.998;22.340;2023-01-24T08:30:09;7.78;;;3.67;;
53503;SDS011;39387;50.998;22.340;2023-01-24T08:35:04;8.93;;;3.78;;
53503;SDS011;39387;50.998;22.340;2023-01-24T08:37:32;7.32;;;3.45;;
53503;SDS011;39387;50.998;22.340;2023-01-24T08:40:00;6.53;;;3.38;;
53503;SDS011;39387;50.998;22.340;2023-01-24T08:42:27;6.20;;;3.35;;
53503;SDS011;39387;50.998;22.340;2023-01-24T08:44:55;4.82;;;2.75;;
53503;SDS011;39387;50.998;22.340;2023-01-24T08:47:24;5.63;;;3.00;;
53503;SDS011;39387;50.998;22.340;2023-01-24T08:49:51;4.78;;;2.53;;
53503;SDS011;39387;50.998;22.340;2023-01-24T08:52:19;6.65;;;3.00;;
53503;SDS011;39387;50.998;22.340;2023-01-24T08:54:46;6.82;;;3.28;;
53503;SDS011;39387;50.998;22.340;2023-01-24T08:57:14;6.75;;;2.85;;
53503;SDS011;39387;50.998;22.340;2023-01-24T08:59:41;7.68;;;3.03;;
53503;SDS011;39387;50.998;22.340;2023-01-24T09:02:09;6.93;;;3.03;;
53503;SDS011;39387;50.998;22.340;2023-01-24T09:04:39;7.60;;;3.28;;
53503;SDS011;39387;50.998;22.340;2023-01-24T09:07:08;6.57;;;2.95;;
53503;SDS011;39387;50.998;22.340;2023-01-24T09:09:35;5.35;;;2.50;;
53503;SDS011;39387;50.998;22.340;2023-01-24T09:12:03;4.63;;;2.55;;
53503;SDS011;39387;50.998;22.340;2023-01-24T09:14:30;4.93;;;2.55;;
53503;SDS011;39387;50.998;22.340;2023-01-24T09:16:58;3.78;;;2.35;;
53503;SDS011;39387;50.998;22.340;2023-01-24T09:19:25;3.70;;;2.47;;
53503;SDS011;39387;50.998;22.340;2023-01-24T09:21:55;4.55;;;2.50;;
53503;SDS011;39387;50.998;22.340;2023-01-24T09:24:22;4.00;;;2.20;;
53503;SDS011;39387;50.998;22.340;2023-01-24T09:26:50;4.43;;;2.10;;
53503;SDS011;39387;50.998;22.340;2023-01-24T09:29:17;3.40;;;2.40;;
53503;SDS011;39387;50.998;22.340;2023-01-24T09:31:46;4.07;;;2.30;;
53503;SDS011;39387;50.998;22.340;2023-01-24T09:34:14;3.33;;;1.92;;
53503;SDS011;39387;50.998;22.340;2023-01-24T09:36:41;3.72;;;2.28;;
53503;SDS011;39387;50.998;22.340;2023-01-24T09:39:10;3.85;;;2.28;;
53503;SDS011;39387;50.998;22.340;2023-01-24T09:41:43;4.13;;;2.58;;
53503;SDS011;39387;50.998;22.340;2023-01-24T09:44:15;2.65;;;1.88;;
53503;SDS011;39387;50.998;22.340;2023-01-24T09:46:47;3.92;;;2.25;;
53503;SDS011;39387;50.998;22.340;2023-01-24T09:49:16;6.32;;;2.67;;
53503;SDS011;39387;50.998;22.340;2023-01-24T09:51:48;3.22;;;2.03;;
53503;SDS011;39387;50.998;22.340;2023-01-24T09:54:21;4.65;;;2.00;;
53503;SDS011;39387;50.998;22.340;2023-01-24T09:56:55;2.22;;;1.70;;
53503;SDS011;39387;50.998;22.340;2023-01-24T09:59:23;2.15;;;1.83;;
53503;SDS011;39387;50.998;22.340;2023-01-24T10:01:58;3.22;;;2.40;;
53503;SDS011;39387;50.998;22.340;2023-01-24T10:04:27;4.78;;;2.30;;
53503;SDS011;39387;50.998;22.340;2023-01-24T10:07:01;3.50;;;2.08;;
53503;SDS011;39387;50.998;22.340;2023-01-24T10:10:09;3.35;;;2.08;;
53503;SDS011;39387;50.998;22.340;2023-01-24T10:12:46;3.38;;;2.15;;
53503;SDS011;39387;50.998;22.340;2023-01-24T10:15:20;3.72;;;2.30;;
53503;SDS011;39387;50.998;22.340;2023-01-24T10:21:52;4.20;;;2.40;;
53503;SDS011;39387;50.998;22.340;2023-01-24T10:24:32;2.92;;;1.92;;
53503;SDS011;39387;50.998;22.340;2023-01-24T10:27:05;2.50;;;1.70;;
53503;SDS011;39387;50.998;22.340;2023-01-24T10:29:41;3.55;;;2.25;;
53503;SDS011;39387;50.998;22.340;2023-01-24T10:32:11;3.85;;;2.25;;
53503;SDS011;39387;50.998;22.340;2023-01-24T10:34:41;3.25;;;1.90;;
53503;SDS011;39387;50.998;22.340;2023-01-24T10:37:13;2.40;;;1.73;;
53503;SDS011;39387;50.998;22.340;2023-01-24T10:39:44;2.90;;;1.67;;
53503;SDS011;39387;50.998;22.340;2023-01-24T10:42:14;2.17;;;1.77;;
53503;SDS011;39387;50.998;22.340;2023-01-24T10:44:46;3.13;;;2.00;;
53503;SDS011;39387;50.998;22.340;2023-01-24T10:50:09;2.67;;;1.73;;
53503;SDS011;39387;50.998;22.340;2023-01-24T10:52:38;2.28;;;1.65;;
53503;SDS011;39387;50.998;22.340;2023-01-24T10:55:26;3.30;;;2.25;;
53503;SDS011;39387;50.998;22.340;2023-01-24T10:58:01;3.05;;;2.13;;
53503;SDS011;39387;50.998;22.340;2023-01-24T11:00:41;3.80;;;2.38;;
53503;SDS011;39387;50.998;22.340;2023-01-24T11:03:16;4.28;;;2.15;;
53503;SDS011;39387;50.998;22.340;2023-01-24T11:05:46;3.08;;;2.20;;
53503;SDS011;39387;50.998;22.340;2023-01-24T11:08:16;3.27;;;1.90;;
53503;SDS011;39387;50.998;22.340;2023-01-24T11:10:45;3.05;;;1.77;;
53503;SDS011;39387;50.998;22.340;2023-01-24T11:13:26;3.08;;;1.92;;
53503;SDS011;39387;50.998;22.340;2023-01-24T11:15:59;4.55;;;2.50;;
53503;SDS011;39387;50.998;22.340;2023-01-24T11:18:28;3.78;;;2.42;;
53503;SDS011;39387;50.998;22.340;2023-01-24T11:21:11;3.35;;;2.47;;
53503;SDS011;39387;50.998;22.340;2023-01-24T11:23:40;4.32;;;2.40;;
53503;SDS011;39387;50.998;22.340;2023-01-24T11:26:19;3.28;;;2.40;;
53503;SDS011;39387;50.998;22.340;2023-01-24T11:28:56;5.50;;;2.35;;
53503;SDS011;39387;50.998;22.340;2023-01-24T11:31:27;4.47;;;2.08;;
53503;SDS011;39387;50.998;22.340;2023-01-24T11:34:06;3.10;;;2.08;;
53503;SDS011;39387;50.998;22.340;2023-01-24T11:36:44;4.70;;;2.75;;
53503;SDS011;39387;50.998;22.340;2023-01-24T11:39:16;4.80;;;2.42;;
53503;SDS011;39387;50.998;22.340;2023-01-24T11:41:50;3.78;;;2.08;;
53503;SDS011;39387;50.998;22.340;2023-01-24T11:44:34;6.15;;;2.92;;
53503;SDS011;39387;50.998;22.340;2023-01-24T11:47:08;4.85;;;2.13;;
53503;SDS011;39387;50.998;22.340;2023-01-24T11:49:53;4.43;;;2.70;;
53503;SDS011;39387;50.998;22.340;2023-01-24T11:52:46;5.53;;;2.47;;
53503;SDS011;39387;50.998;22.340;2023-01-24T11:55:22;3.80;;;2.38;;
53503;SDS011;39387;50.998;22.340;2023-01-24T11:57:58;4.93;;;2.42;;
53503;SDS011;39387;50.998;22.340;2023-01-24T12:03:23;4.53;;;2.35;;
53503;SDS011;39387;50.998;22.340;2023-01-24T12:06:04;3.45;;;2.08;;
53503;SDS011;39387;50.998;22.340;2023-01-24T12:08:40;4.10;;;2.50;;
53503;SDS011;39387;50.998;22.340;2023-01-24T12:11:16;4.60;;;2.38;;
53503;SDS011;39387;50.998;22.340;2023-01-24T12:13:54;6.35;;;2.60;;
53503;SDS011;39387;50.998;22.340;2023-01-24T12:16:35;4.00;;;2.75;;
53503;SDS011;39387;50.998;22.340;2023-01-24T12:19:16;3.97;;;2.30;;
53503;SDS011;39387;50.998;22.340;2023-01-24T12:22:12;3.97;;;2.35;;
53503;SDS011;39387;50.998;22.340;2023-01-24T12:24:43;4.95;;;3.00;;
53503;SDS011;39387;50.998;22.340;2023-01-24T12:27:14;4.43;;;3.65;;
53503;SDS011;39387;50.998;22.340;2023-01-24T12:29:44;5.47;;;4.25;;
53503;SDS011;39387;50.998;22.340;2023-01-24T12:32:17;9.20;;;5.25;;
53503;SDS011;39387;50.998;22.340;2023-01-24T12:34:50;6.88;;;3.90;;
53503;SDS011;39387;50.998;22.340;2023-01-24T12:37:22;5.95;;;4.10;;
53503;SDS011;39387;50.998;22.340;2023-01-24T12:39:56;6.93;;;3.95;;
53503;SDS011;39387;50.998;22.340;2023-01-24T12:42:35;4.00;;;2.90;;
53503;SDS011;39387;50.998;22.340;2023-01-24T12:45:10;4.20;;;2.53;;
53503;SDS011;39387;50.998;22.340;2023-01-24T12:47:41;4.70;;;2.67;;
53503;SDS011;39387;50.998;22.340;2023-01-24T12:50:14;3.72;;;2.10;;
53503;SDS011;39387;50.998;22.340;2023-01-24T12:52:47;3.97;;;2.40;;
53503;SDS011;39387;50.998;22.340;2023-01-24T12:55:22;4.10;;;2.47;;
53503;SDS011;39387;50.998;22.340;2023-01-24T12:57:51;4.80;;;2.58;;
53503;SDS011;39387;50.998;22.340;2023-01-24T13:00:23;5.35;;;2.90;;
53503;SDS011;39387;50.998;22.340;2023-01-24T13:02:57;5.40;;;2.80;;
53503;SDS011;39387;50.998;22.340;2023-01-24T13:05:33;5.80;;;3.38;;
53503;SDS011;39387;50.998;22.340;2023-01-24T13:08:10;5.25;;;3.20;;
53503;SDS011;39387;50.998;22.340;2023-01-24T13:10:48;6.85;;;3.70;;
53503;SDS011;39387;50.998;22.340;2023-01-24T13:13:21;6.72;;;3.30;;
53503;SDS011;39387;50.998;22.340;2023-01-24T13:15:55;7.07;;;3.38;;
53503;SDS011;39387;50.998;22.340;2023-01-24T13:18:46;5.13;;;3.00;;
53503;SDS011;39387;50.998;22.340;2023-01-24T13:21:20;5.97;;;3.50;;
53503;SDS011;39387;50.998;22.340;2023-01-24T13:23:55;5.57;;;3.33;;
53503;SDS011;39387;50.998;22.340;2023-01-24T13:26:43;5.25;;;2.95;;
53503;SDS011;39387;50.998;22.340;2023-01-24T13:29:20;7.45;;;3.80;;
53503;SDS011;39387;50.998;22.340;2023-01-24T13:32:00;9.18;;;4.60;;
53503;SDS011;39387;50.998;22.340;2023-01-24T13:34:33;9.35;;;4.43;;
53503;SDS011;39387;50.998;22.340;2023-01-24T13:39:31;7.15;;;3.53;;
53503;SDS011;39387;50.998;22.340;2023-01-24T13:44:30;5.32;;;3.15;;
53503;SDS011;39387;50.998;22.340;2023-01-24T13:52:49;5.72;;;3.25;;
53503;SDS011;39387;50.998;22.340;2023-01-24T13:58:24;6.22;;;3.28;;
53503;SDS011;39387;50.998;22.340;2023-01-24T14:00:53;5.05;;;3.03;;
53503;SDS011;39387;50.998;22.340;2023-01-24T14:03:23;5.88;;;3.25;;
53503;SDS011;39387;50.998;22.340;2023-01-24T14:05:55;6.80;;;3.75;;
53503;SDS011;39387;50.998;22.340;2023-01-24T14:08:32;6.22;;;3.50;;
53503;SDS011;39387;50.998;22.340;2023-01-24T14:13:55;6.38;;;3.83;;
53503;SDS011;39387;50.998;22.340;2023-01-24T14:19:24;9.50;;;5.32;;
53503;SDS011;39387;50.998;22.340;2023-01-24T14:21:56;9.85;;;5.43;;
53503;SDS011;39387;50.998;22.340;2023-01-24T14:24:28;8.90;;;4.82;;
53503;SDS011;39387;50.998;22.340;2023-01-24T14:26:58;8.75;;;5.60;;
53503;SDS011;39387;50.998;22.340;2023-01-24T14:29:33;9.65;;;4.78;;
53503;SDS011;39387;50.998;22.340;2023-01-24T14:32:03;11.13;;;4.75;;
53503;SDS011;39387;50.998;22.340;2023-01-24T14:34:35;12.02;;;5.20;;
53503;SDS011;39387;50.998;22.340;2023-01-24T14:37:09;9.50;;;6.40;;
53503;SDS011;39387;50.998;22.340;2023-01-24T14:39:37;12.35;;;5.25;;
53503;SDS011;39387;50.998;22.340;2023-01-24T14:42:05;10.43;;;5.57;;
53503;SDS011;39387;50.998;22.340;2023-01-24T14:44:35;20.45;;;9.30;;
53503;SDS011;39387;50.998;22.340;2023-01-24T14:47:04;21.50;;;9.90;;
53503;SDS011;39387;50.998;22.340;2023-01-24T14:49:33;13.48;;;7.40;;
53503;SDS011;39387;50.998;22.340;2023-01-24T14:52:01;10.07;;;5.60;;
53503;SDS011;39387;50.998;22.340;2023-01-24T14:54:42;13.15;;;6.72;;
53503;SDS011;39387;50.998;22.340;2023-01-24T14:59:58;9.25;;;5.10;;
53503;SDS011;39387;50.998;22.340;2023-01-24T15:02:26;11.38;;;5.68;;
53503;SDS011;39387;50.998;22.340;2023-01-24T15:04:54;10.85;;;5.30;;
53503;SDS011;39387;50.998;22.340;2023-01-24T15:07:21;12.30;;;5.82;;
53503;SDS011;39387;50.998;22.340;2023-01-24T15:09:50;15.55;;;6.43;;
53503;SDS011;39387;50.998;22.340;2023-01-24T15:12:21;10.32;;;5.15;;
53503;SDS011;39387;50.998;22.340;2023-01-24T15:14:51;8.10;;;4.32;;
53503;SDS011;39387;50.998;22.340;2023-01-24T15:17:20;11.75;;;5.00;;
53503;SDS011;39387;50.998;22.340;2023-01-24T15:19:50;12.30;;;5.75;;
53503;SDS011;39387;50.998;22.340;2023-01-24T15:22:21;10.50;;;5.38;;
53503;SDS011;39387;50.998;22.340;2023-01-24T15:24:51;11.50;;;5.28;;
53503;SDS011;39387;50.998;22.340;2023-01-24T15:27:20;11.13;;;6.30;;
53503;SDS011;39387;50.998;22.340;2023-01-24T15:30:09;11.63;;;5.72;;